| time (UTC) | temp C | wind direction | speed KPH | gust KPH | rain 1hr cm | rain 24hr cm | rain mn cm | humidity % | barometer mb |
| 20260505032235 | 26 | 191 | 4.8 | 8.0 | 0.00 | 0.00 | 0.00 | 29 | 1018.3 |
| 20260505031234 | 25 | 126 | 3.2 | 8.0 | 0.00 | 0.00 | 0.00 | 29 | 1018.3 |
| 20260505030235 | 25 | 175 | 9.7 | 12.9 | 0.00 | 0.00 | 0.00 | 29 | 1018.1 |
| 20260505025236 | 25 | 200 | 3.2 | 1.6 | 0.00 | 0.00 | 0.00 | 29 | 1018.2 |
| 20260505024236 | 23 | 197 | 4.8 | 4.8 | 0.00 | 0.00 | 0.00 | 29 | 1018.2 |
| 20260505023235 | 25 | 118 | 4.8 | 4.8 | 0.00 | 0.00 | 0.00 | 29 | 1018.0 |
| 20260505022235 | 24 | 100 | 4.8 | 4.8 | 0.00 | 0.00 | 0.00 | 29 | 1018.1 |
| 20260505021235 | 24 | 209 | 4.8 | 4.8 | 0.00 | 0.00 | 0.00 | 29 | 1018.1 |
| 20260505020234 | 24 | 206 | 3.2 | 8.0 | 0.00 | 0.00 | 0.00 | 29 | 1018.1 |
| 20260505015235 | 25 | 104 | 4.8 | 9.7 | 0.00 | 0.00 | 0.00 | 29 | 1018.1 |
| 20260505014235 | 23 | 331 | 3.2 | 4.8 | 0.00 | 0.00 | 0.00 | 29 | 1018.1 |
| 20260505013236 | 23 | 123 | 1.6 | 3.2 | 0.00 | 0.00 | 0.00 | 29 | 1018.3 |
| 20260505012235 | 23 | 210 | 4.8 | 4.8 | 0.00 | 0.00 | 0.00 | 29 | 1017.9 |
| 20260505011234 | 23 | 203 | 4.8 | 8.0 | 0.00 | 0.00 | 0.00 | 29 | 1017.9 |
| 20260505010235 | 23 | 342 | 1.6 | 3.2 | 0.00 | 0.00 | 0.00 | 29 | 1018.3 |
| 20260505005234 | 22 | 206 | 4.8 | 4.8 | 0.00 | 0.00 | 0.00 | 29 | 1018.1 |
| 20260505004234 | 22 | 173 | 3.2 | 4.8 | 0.00 | 0.00 | 0.00 | 29 | 1018.1 |
| 20260505003235 | 21 | 223 | 8.0 | 9.7 | 0.00 | 0.00 | 0.00 | 29 | 1018.3 |
| 20260505002235 | 21 | 180 | 4.8 | 11.3 | 0.00 | 0.00 | 0.00 | 29 | 1018.4 |
| 20260505001234 | 20 | 190 | 4.8 | 4.8 | 0.00 | 0.00 | 0.00 | 29 | 1018.3 |
| 20260505000235 | 20 | 224 | 8.0 | 8.0 | 0.00 | 0.00 | 0.00 | 29 | 1018.3 |
| 20260504235234 | 20 | 173 | 8.0 | 4.8 | 0.00 | 0.00 | 0.00 | 29 | 1018.6 |
| 20260504234234 | 20 | 189 | 3.2 | 4.8 | 0.00 | 0.00 | 0.00 | 29 | 1018.6 |
| 20260504233234 | 19 | 170 | 4.8 | 4.8 | 0.00 | 0.00 | 0.00 | 29 | 1018.8 |
| 20260504232234 | 19 | 239 | 3.2 | 4.8 | 0.00 | 0.00 | 0.00 | 29 | 1018.9 |
| 20260504231234 | 18 | 172 | 4.8 | 8.0 | 0.00 | 0.00 | 0.00 | 29 | 1018.9 |
| 20260504230234 | 18 | 174 | 4.8 | 9.7 | 0.00 | 0.00 | 0.00 | 29 | 1019.0 |
| 20260504225235 | 17 | 166 | 3.2 | 4.8 | 0.00 | 0.00 | 0.00 | 29 | 1019.2 |
| 20260504224235 | 17 | 195 | 3.2 | 8.0 | 0.00 | 0.00 | 0.00 | 29 | 1019.2 |
| 20260504223233 | 17 | 56 | 1.6 | 3.2 | 0.00 | 0.00 | 0.00 | 29 | 1019.4 |
| 20260504222235 | 16 | 112 | 1.6 | 3.2 | 0.00 | 0.00 | 0.00 | 25 | 1019.7 |
| 20260504221234 | 15 | 199 | 3.2 | 4.8 | 0.00 | 0.00 | 0.00 | 27 | 1019.7 |
| 20260504220235 | 15 | 231 | 3.2 | 4.8 | 0.00 | 0.00 | 0.00 | 30 | 1020.0 |
| 20260504215235 | 14 | 277 | 1.6 | 4.8 | 0.00 | 0.00 | 0.00 | 33 | 1020.0 |
| 20260504214235 | 13 | 204 | 3.2 | 4.8 | 0.00 | 0.00 | 0.00 | 36 | 1020.0 |
| 20260504213234 | 13 | 192 | 3.2 | 3.2 | 0.00 | 0.00 | 0.00 | 39 | 1020.5 |
| 20260504212234 | 13 | 236 | 4.8 | 4.8 | 0.00 | 0.00 | 0.00 | 43 | 1020.3 |
| 20260504211234 | 12 | 160 | 1.6 | 1.6 | 0.00 | 0.00 | 0.00 | 51 | 1020.3 |
| 20260504210235 | 11 | 166 | 0.0 | 0.0 | 0.00 | 0.00 | 0.00 | 55 | 1020.2 |
| 20260504205235 | 11 | 210 | 0.0 | 0.0 | 0.00 | 0.00 | 0.00 | 55 | 1020.1 |
| 20260504204235 | 10 | 262 | 0.0 | 0.0 | 0.00 | 0.00 | 0.00 | 54 | 1020.1 |
| 20260504203233 | 10 | 292 | 0.0 | 0.0 | 0.00 | 0.00 | 0.00 | 53 | 1019.8 |
| 20260504202234 | 11 | 321 | 0.0 | 0.0 | 0.00 | 0.00 | 0.00 | 53 | 1019.8 |
| 20260504201234 | 11 | 283 | 0.0 | 0.0 | 0.00 | 0.00 | 0.00 | 54 | 1019.8 |
| 20260504200235 | 11 | 243 | 0.0 | 0.0 | 0.00 | 0.00 | 0.00 | 52 | 1019.8 |
| 20260504195235 | 11 | 198 | 0.0 | 1.6 | 0.00 | 0.00 | 0.00 | 53 | 1019.7 |
| 20260504194235 | 11 | 75 | 0.0 | 1.6 | 0.00 | 0.00 | 0.00 | 54 | 1019.7 |
| 20260504193234 | 11 | 183 | 1.6 | 8.0 | 0.00 | 0.00 | 0.00 | 55 | 1019.3 |
| 20260504192233 | 11 | 222 | 0.0 | 1.6 | 0.00 | 0.00 | 0.00 | 56 | 1019.1 |
| 20260504191233 | 11 | 221 | 1.6 | 3.2 | 0.00 | 0.00 | 0.00 | 56 | 1019.1 |
| 20260504190234 | 11 | 200 | 1.6 | 3.2 | 0.00 | 0.00 | 0.00 | 56 | 1019.2 |
| 20260504185235 | 11 | 187 | 0.0 | 1.6 | 0.00 | 0.00 | 0.00 | 56 | 1019.0 |
| 20260504184233 | 11 | 205 | 1.6 | 1.6 | 0.00 | 0.00 | 0.00 | 56 | 1019.0 |
| 20260504183234 | 11 | 225 | 0.0 | 0.0 | 0.00 | 0.00 | 0.00 | 56 | 1018.7 |
| 20260504182235 | 11 | 234 | 1.6 | 3.2 | 0.00 | 0.00 | 0.00 | 55 | 1018.8 |
| 20260504181234 | 11 | 207 | 0.0 | 0.0 | 0.00 | 0.00 | 0.00 | 53 | 1018.6 |
| 20260504180235 | 11 | 202 | 0.0 | 0.0 | 0.00 | 0.00 | 0.00 | 54 | 1018.6 |
| 20260504175234 | 11 | 212 | 3.2 | 3.2 | 0.00 | 0.00 | 0.00 | 56 | 1018.4 |
| 20260504174235 | 12 | 220 | 1.6 | 1.6 | 0.00 | 0.00 | 0.00 | 56 | 1018.4 |
| 20260504173234 | 11 | 186 | 0.0 | 1.6 | 0.00 | 0.00 | 0.00 | 53 | 1018.4 |
| 20260504172235 | 12 | 158 | 3.2 | 3.2 | 0.00 | 0.00 | 0.00 | 55 | 1018.1 |
| 20260504171234 | 11 | 158 | 0.0 | 0.0 | 0.00 | 0.00 | 0.00 | 52 | 1017.9 |
| 20260504170234 | 11 | 333 | 0.0 | 0.0 | 0.00 | 0.00 | 0.00 | 49 | 1017.9 |
| 20260504160235 | 12 | 112 | 0.0 | 0.0 | 0.00 | 0.00 | 0.00 | 45 | 1016.6 |
| 20260504150234 | 12 | 270 | 0.0 | 0.0 | 0.00 | 0.00 | 0.00 | 39 | 1016.9 |
| 20260504141234 | 13 | 322 | 0.0 | 0.0 | 0.00 | 0.00 | 0.00 | 36 | 1017.9 |
| 20260504140233 | 13 | 199 | 0.0 | 1.6 | 0.00 | 0.00 | 0.00 | 38 | 1018.3 |
| 20260504130234 | 14 | 188 | 0.0 | 1.6 | 0.00 | 0.00 | 0.00 | 31 | 1017.8 |
| 20260504120233 | 15 | 202 | 0.0 | 0.0 | 0.00 | 0.00 | 0.00 | 26 | 1017.0 |
| 20260504110234 | 16 | 175 | 1.6 | 3.2 | 0.00 | 0.00 | 0.00 | 25 | 1015.7 |
| 20260504100233 | 17 | 88 | 1.6 | 3.2 | 0.00 | 0.00 | 0.00 | 25 | 1015.3 |
| 20260504081234 | 18 | 242 | 3.2 | 9.7 | 0.00 | 0.00 | 0.00 | 25 | 1014.2 |
| 20260504080233 | 19 | 303 | 8.0 | 16.1 | 0.00 | 0.10 | 0.00 | 25 | 1014.0 |
| 20260504070234 | 20 | 318 | 9.7 | 8.0 | 0.00 | 0.10 | 0.00 | 25 | 1014.6 |
| 20260504060233 | 21 | 318 | 16.1 | 16.1 | 0.00 | 0.20 | 0.00 | 25 | 1014.5 |
| 20260504050233 | 23 | 338 | 11.3 | 14.5 | 0.00 | 0.84 | 0.00 | 25 | 1014.3 |
| 20260504045234 | 22 | 354 | 12.9 | 19.3 | 0.00 | 0.94 | 0.00 | 25 | 1014.1 |
| 20260504044233 | 22 | 335 | 12.9 | 22.5 | 0.00 | 1.04 | 0.00 | 25 | 1014.1 |
| 20260504043233 | 21 | 324 | 9.7 | 11.3 | 0.00 | 1.27 | 0.00 | 25 | 1013.8 |
| 20260504042234 | 22 | 338 | 9.7 | 22.5 | 0.00 | 1.37 | 0.00 | 25 | 1014.0 |
| 20260504041234 | 21 | 208 | 8.0 | 11.3 | 0.00 | 1.47 | 0.00 | 25 | 1014.0 |
| 20260504040234 | 21 | 338 | 8.0 | 14.5 | 0.00 | 1.47 | 0.00 | 25 | 1013.7 |
| 20260504035232 | 21 | 158 | 9.7 | 20.9 | 0.00 | 1.47 | 0.00 | 25 | 1013.9 |
| 20260504034234 | 22 | 187 | 4.8 | 4.8 | 0.00 | 1.47 | 0.00 | 25 | 1013.9 |
| 20260504033234 | 20 | 320 | 4.8 | 8.0 | 0.00 | 1.57 | 0.00 | 25 | 1013.4 |